sensor_id;sensor_type;location;lat;lon;timestamp;P1;durP1;ratioP1;P2;durP2;ratioP2
3211;SDS011;1618;47.056;15.472;2024-02-16T00:00:07;18.90;;;18.00;;
3211;SDS011;1618;47.056;15.472;2024-02-16T00:02:37;19.20;;;18.30;;
3211;SDS011;1618;47.056;15.472;2024-02-16T00:05:05;59.40;;;56.30;;
3211;SDS011;1618;47.056;15.472;2024-02-16T00:07:34;20.27;;;19.27;;
3211;SDS011;1618;47.056;15.472;2024-02-16T00:10:02;19.07;;;18.17;;
3211;SDS011;1618;47.056;15.472;2024-02-16T00:12:31;18.73;;;17.83;;
3211;SDS011;1618;47.056;15.472;2024-02-16T00:15:01;18.57;;;17.67;;
3211;SDS011;1618;47.056;15.472;2024-02-16T00:17:29;18.60;;;17.70;;
3211;SDS011;1618;47.056;15.472;2024-02-16T00:19:56;18.13;;;17.33;;
3211;SDS011;1618;47.056;15.472;2024-02-16T00:22:25;17.90;;;17.10;;
3211;SDS011;1618;47.056;15.472;2024-02-16T00:24:53;18.47;;;17.67;;
3211;SDS011;1618;47.056;15.472;2024-02-16T00:27:20;18.53;;;17.73;;
3211;SDS011;1618;47.056;15.472;2024-02-16T00:29:49;18.30;;;17.50;;
3211;SDS011;1618;47.056;15.472;2024-02-16T00:32:17;17.90;;;17.10;;
3211;SDS011;1618;47.056;15.472;2024-02-16T00:34:48;18.70;;;17.83;;
3211;SDS011;1618;47.056;15.472;2024-02-16T00:37:22;18.30;;;17.50;;
3211;SDS011;1618;47.056;15.472;2024-02-16T00:39:49;17.83;;;17.03;;
3211;SDS011;1618;47.056;15.472;2024-02-16T00:42:20;17.80;;;17.00;;
3211;SDS011;1618;47.056;15.472;2024-02-16T00:44:49;18.67;;;17.87;;
3211;SDS011;1618;47.056;15.472;2024-02-16T00:47:19;18.50;;;17.70;;
3211;SDS011;1618;47.056;15.472;2024-02-16T00:49:47;17.70;;;16.90;;
3211;SDS011;1618;47.056;15.472;2024-02-16T00:52:14;17.93;;;17.13;;
3211;SDS011;1618;47.056;15.472;2024-02-16T00:54:43;18.70;;;17.87;;
3211;SDS011;1618;47.056;15.472;2024-02-16T00:57:11;17.60;;;16.80;;
3211;SDS011;1618;47.056;15.472;2024-02-16T00:59:40;18.40;;;17.60;;
3211;SDS011;1618;47.056;15.472;2024-02-16T01:02:09;18.67;;;17.87;;
3211;SDS011;1618;47.056;15.472;2024-02-16T01:04:38;18.70;;;17.90;;
3211;SDS011;1618;47.056;15.472;2024-02-16T01:07:06;18.40;;;17.60;;
3211;SDS011;1618;47.056;15.472;2024-02-16T01:09:40;18.67;;;17.87;;
3211;SDS011;1618;47.056;15.472;2024-02-16T01:12:09;18.57;;;17.73;;
3211;SDS011;1618;47.056;15.472;2024-02-16T01:14:37;18.60;;;17.70;;
3211;SDS011;1618;47.056;15.472;2024-02-16T01:17:09;18.70;;;17.80;;
3211;SDS011;1618;47.056;15.472;2024-02-16T01:19:39;18.30;;;17.50;;
3211;SDS011;1618;47.056;15.472;2024-02-16T01:22:08;18.83;;;17.93;;
3211;SDS011;1618;47.056;15.472;2024-02-16T01:24:37;18.97;;;18.07;;
3211;SDS011;1618;47.056;15.472;2024-02-16T01:27:04;18.40;;;17.60;;
3211;SDS011;1618;47.056;15.472;2024-02-16T01:29:32;18.03;;;17.23;;
3211;SDS011;1618;47.056;15.472;2024-02-16T01:31:59;18.43;;;17.63;;
3211;SDS011;1618;47.056;15.472;2024-02-16T01:34:28;18.20;;;17.40;;
3211;SDS011;1618;47.056;15.472;2024-02-16T01:37:01;18.60;;;17.80;;
3211;SDS011;1618;47.056;15.472;2024-02-16T01:39:30;19.60;;;18.70;;
3211;SDS011;1618;47.056;15.472;2024-02-16T01:42:00;19.00;;;18.10;;
3211;SDS011;1618;47.056;15.472;2024-02-16T01:44:27;19.10;;;18.20;;
3211;SDS011;1618;47.056;15.472;2024-02-16T01:46:56;18.83;;;17.93;;
3211;SDS011;1618;47.056;15.472;2024-02-16T01:49:24;18.30;;;17.50;;
3211;SDS011;1618;47.056;15.472;2024-02-16T01:51:52;17.73;;;16.93;;
3211;SDS011;1618;47.056;15.472;2024-02-16T01:54:22;18.83;;;18.03;;
3211;SDS011;1618;47.056;15.472;2024-02-16T01:56:50;19.40;;;18.50;;
3211;SDS011;1618;47.056;15.472;2024-02-16T01:59:18;18.47;;;17.67;;
3211;SDS011;1618;47.056;15.472;2024-02-16T02:01:46;18.10;;;17.30;;
3211;SDS011;1618;47.056;15.472;2024-02-16T02:04:14;19.23;;;18.40;;
3211;SDS011;1618;47.056;15.472;2024-02-16T02:06:42;18.73;;;17.93;;
3211;SDS011;1618;47.056;15.472;2024-02-16T02:09:11;18.30;;;17.50;;
3211;SDS011;1618;47.056;15.472;2024-02-16T02:11:41;17.97;;;17.17;;
3211;SDS011;1618;47.056;15.472;2024-02-16T02:14:11;18.40;;;17.60;;
3211;SDS011;1618;47.056;15.472;2024-02-16T02:16:39;18.17;;;17.37;;
3211;SDS011;1618;47.056;15.472;2024-02-16T02:19:07;18.80;;;18.00;;
3211;SDS011;1618;47.056;15.472;2024-02-16T02:21:35;18.90;;;18.10;;
3211;SDS011;1618;47.056;15.472;2024-02-16T02:24:04;18.27;;;17.47;;
3211;SDS011;1618;47.056;15.472;2024-02-16T02:26:33;17.73;;;16.93;;
3211;SDS011;1618;47.056;15.472;2024-02-16T02:29:02;19.13;;;18.33;;
3211;SDS011;1618;47.056;15.472;2024-02-16T02:31:32;19.10;;;18.30;;
3211;SDS011;1618;47.056;15.472;2024-02-16T02:34:00;19.10;;;18.30;;
3211;SDS011;1618;47.056;15.472;2024-02-16T02:36:31;18.97;;;18.17;;
3211;SDS011;1618;47.056;15.472;2024-02-16T02:39:00;18.00;;;17.20;;
3211;SDS011;1618;47.056;15.472;2024-02-16T02:41:29;18.20;;;17.40;;
3211;SDS011;1618;47.056;15.472;2024-02-16T02:43:57;18.10;;;17.30;;
3211;SDS011;1618;47.056;15.472;2024-02-16T02:46:25;19.07;;;18.23;;
3211;SDS011;1618;47.056;15.472;2024-02-16T02:48:52;18.60;;;17.80;;
3211;SDS011;1618;47.056;15.472;2024-02-16T02:51:20;18.40;;;17.60;;
3211;SDS011;1618;47.056;15.472;2024-02-16T02:53:47;18.80;;;18.00;;
3211;SDS011;1618;47.056;15.472;2024-02-16T02:56:14;18.30;;;17.50;;
3211;SDS011;1618;47.056;15.472;2024-02-16T02:58:44;18.00;;;17.20;;
3211;SDS011;1618;47.056;15.472;2024-02-16T03:01:13;17.40;;;16.60;;
3211;SDS011;1618;47.056;15.472;2024-02-16T03:03:41;18.30;;;17.50;;
3211;SDS011;1618;47.056;15.472;2024-02-16T03:06:11;18.50;;;17.70;;
3211;SDS011;1618;47.056;15.472;2024-02-16T03:08:40;18.20;;;17.40;;
3211;SDS011;1618;47.056;15.472;2024-02-16T03:11:07;17.77;;;16.97;;
3211;SDS011;1618;47.056;15.472;2024-02-16T03:13:37;17.40;;;16.60;;
3211;SDS011;1618;47.056;15.472;2024-02-16T03:16:06;17.40;;;16.60;;
3211;SDS011;1618;47.056;15.472;2024-02-16T03:18:33;16.97;;;16.17;;
3211;SDS011;1618;47.056;15.472;2024-02-16T03:21:02;17.73;;;16.93;;
3211;SDS011;1618;47.056;15.472;2024-02-16T03:23:30;17.90;;;17.10;;
3211;SDS011;1618;47.056;15.472;2024-02-16T03:25:59;18.53;;;17.73;;
3211;SDS011;1618;47.056;15.472;2024-02-16T03:28:27;18.20;;;17.40;;
3211;SDS011;1618;47.056;15.472;2024-02-16T03:30:54;17.90;;;17.10;;
3211;SDS011;1618;47.056;15.472;2024-02-16T03:33:23;18.27;;;17.47;;
3211;SDS011;1618;47.056;15.472;2024-02-16T03:35:51;18.07;;;17.27;;
3211;SDS011;1618;47.056;15.472;2024-02-16T03:38:19;16.90;;;16.20;;
3211;SDS011;1618;47.056;15.472;2024-02-16T03:40:47;17.73;;;16.93;;
3211;SDS011;1618;47.056;15.472;2024-02-16T03:43:15;17.03;;;16.33;;
3211;SDS011;1618;47.056;15.472;2024-02-16T03:45:42;17.87;;;17.07;;
3211;SDS011;1618;47.056;15.472;2024-02-16T03:48:10;16.93;;;16.23;;
3211;SDS011;1618;47.056;15.472;2024-02-16T03:50:41;17.40;;;16.60;;
3211;SDS011;1618;47.056;15.472;2024-02-16T03:53:11;18.03;;;17.23;;
3211;SDS011;1618;47.056;15.472;2024-02-16T03:55:39;16.57;;;15.87;;
3211;SDS011;1618;47.056;15.472;2024-02-16T03:58:08;17.43;;;16.73;;
3211;SDS011;1618;47.056;15.472;2024-02-16T04:00:35;18.53;;;17.73;;
3211;SDS011;1618;47.056;15.472;2024-02-16T04:03:03;18.73;;;17.93;;
3211;SDS011;1618;47.056;15.472;2024-02-16T04:05:31;18.07;;;17.27;;
3211;SDS011;1618;47.056;15.472;2024-02-16T04:08:03;18.77;;;17.97;;
3211;SDS011;1618;47.056;15.472;2024-02-16T04:10:31;18.00;;;17.20;;
3211;SDS011;1618;47.056;15.472;2024-02-16T04:13:01;17.90;;;17.10;;
3211;SDS011;1618;47.056;15.472;2024-02-16T04:15:29;17.40;;;16.60;;
3211;SDS011;1618;47.056;15.472;2024-02-16T04:17:56;17.77;;;16.97;;
3211;SDS011;1618;47.056;15.472;2024-02-16T04:20:24;17.37;;;16.57;;
3211;SDS011;1618;47.056;15.472;2024-02-16T04:22:53;16.77;;;16.07;;
3211;SDS011;1618;47.056;15.472;2024-02-16T04:25:22;17.90;;;17.10;;
3211;SDS011;1618;47.056;15.472;2024-02-16T04:27:50;18.30;;;17.50;;
3211;SDS011;1618;47.056;15.472;2024-02-16T04:30:17;18.63;;;17.83;;
3211;SDS011;1618;47.056;15.472;2024-02-16T04:32:44;18.00;;;17.20;;
3211;SDS011;1618;47.056;15.472;2024-02-16T04:35:14;17.90;;;17.10;;
3211;SDS011;1618;47.056;15.472;2024-02-16T04:37:44;18.03;;;17.23;;
3211;SDS011;1618;47.056;15.472;2024-02-16T04:40:11;18.80;;;18.00;;
3211;SDS011;1618;47.056;15.472;2024-02-16T04:42:41;18.40;;;17.60;;
3211;SDS011;1618;47.056;15.472;2024-02-16T04:45:11;19.00;;;18.20;;
3211;SDS011;1618;47.056;15.472;2024-02-16T04:47:39;18.40;;;17.60;;
3211;SDS011;1618;47.056;15.472;2024-02-16T04:50:07;18.50;;;17.70;;
3211;SDS011;1618;47.056;15.472;2024-02-16T04:52:38;18.90;;;18.10;;
3211;SDS011;1618;47.056;15.472;2024-02-16T04:55:06;19.10;;;18.30;;
3211;SDS011;1618;47.056;15.472;2024-02-16T04:57:33;19.80;;;18.90;;
3211;SDS011;1618;47.056;15.472;2024-02-16T05:00:02;18.73;;;17.93;;
3211;SDS011;1618;47.056;15.472;2024-02-16T05:02:32;19.07;;;18.27;;
3211;SDS011;1618;47.056;15.472;2024-02-16T05:05:00;18.07;;;17.27;;
3211;SDS011;1618;47.056;15.472;2024-02-16T05:07:29;16.77;;;16.07;;
3211;SDS011;1618;47.056;15.472;2024-02-16T05:09:58;19.70;;;18.80;;
3211;SDS011;1618;47.056;15.472;2024-02-16T05:12:26;19.00;;;18.20;;
3211;SDS011;1618;47.056;15.472;2024-02-16T05:14:55;18.60;;;17.80;;
3211;SDS011;1618;47.056;15.472;2024-02-16T05:17:24;19.40;;;18.60;;
3211;SDS011;1618;47.056;15.472;2024-02-16T05:19:51;19.30;;;18.50;;
3211;SDS011;1618;47.056;15.472;2024-02-16T05:22:21;16.80;;;16.10;;
3211;SDS011;1618;47.056;15.472;2024-02-16T05:24:49;17.43;;;16.73;;
3211;SDS011;1618;47.056;15.472;2024-02-16T05:27:16;17.70;;;16.90;;
3211;SDS011;1618;47.056;15.472;2024-02-16T05:29:44;18.10;;;17.30;;
3211;SDS011;1618;47.056;15.472;2024-02-16T05:32:12;18.37;;;17.57;;
3211;SDS011;1618;47.056;15.472;2024-02-16T05:34:41;18.33;;;17.53;;
3211;SDS011;1618;47.056;15.472;2024-02-16T05:37:09;18.03;;;17.23;;
3211;SDS011;1618;47.056;15.472;2024-02-16T05:39:38;18.20;;;17.40;;
3211;SDS011;1618;47.056;15.472;2024-02-16T05:42:19;18.60;;;17.80;;
3211;SDS011;1618;47.056;15.472;2024-02-16T05:44:48;18.90;;;18.10;;
3211;SDS011;1618;47.056;15.472;2024-02-16T05:47:17;20.90;;;20.00;;
3211;SDS011;1618;47.056;15.472;2024-02-16T05:49:55;20.47;;;19.57;;
3211;SDS011;1618;47.056;15.472;2024-02-16T05:52:24;20.10;;;19.20;;
3211;SDS011;1618;47.056;15.472;2024-02-16T05:54:54;20.23;;;19.33;;
3211;SDS011;1618;47.056;15.472;2024-02-16T05:57:22;20.93;;;20.03;;
3211;SDS011;1618;47.056;15.472;2024-02-16T05:59:50;21.13;;;20.23;;
3211;SDS011;1618;47.056;15.472;2024-02-16T06:02:17;20.77;;;19.87;;
3211;SDS011;1618;47.056;15.472;2024-02-16T06:04:47;20.83;;;19.93;;
3211;SDS011;1618;47.056;15.472;2024-02-16T06:07:18;19.73;;;18.87;;
3211;SDS011;1618;47.056;15.472;2024-02-16T06:09:47;18.80;;;18.00;;
3211;SDS011;1618;47.056;15.472;2024-02-16T06:12:16;17.47;;;16.77;;
3211;SDS011;1618;47.056;15.472;2024-02-16T06:14:43;18.00;;;17.23;;
3211;SDS011;1618;47.056;15.472;2024-02-16T06:17:13;18.50;;;17.70;;
3211;SDS011;1618;47.056;15.472;2024-02-16T06:19:40;18.17;;;17.37;;
3211;SDS011;1618;47.056;15.472;2024-02-16T06:22:08;17.47;;;16.77;;
3211;SDS011;1618;47.056;15.472;2024-02-16T06:24:37;15.87;;;15.23;;
3211;SDS011;1618;47.056;15.472;2024-02-16T06:27:05;16.77;;;16.07;;
3211;SDS011;1618;47.056;15.472;2024-02-16T06:29:34;15.80;;;15.20;;
3211;SDS011;1618;47.056;15.472;2024-02-16T06:32:01;16.97;;;16.27;;
3211;SDS011;1618;47.056;15.472;2024-02-16T06:34:29;15.13;;;14.53;;
3211;SDS011;1618;47.056;15.472;2024-02-16T06:36:57;15.20;;;14.60;;
3211;SDS011;1618;47.056;15.472;2024-02-16T06:39:24;15.70;;;15.10;;
3211;SDS011;1618;47.056;15.472;2024-02-16T06:41:53;15.80;;;15.20;;
3211;SDS011;1618;47.056;15.472;2024-02-16T06:44:20;17.00;;;16.30;;
3211;SDS011;1618;47.056;15.472;2024-02-16T06:46:47;16.80;;;16.10;;
3211;SDS011;1618;47.056;15.472;2024-02-16T06:49:15;16.87;;;16.17;;
3211;SDS011;1618;47.056;15.472;2024-02-16T06:51:42;18.53;;;17.73;;
3211;SDS011;1618;47.056;15.472;2024-02-16T06:54:10;19.07;;;18.27;;
3211;SDS011;1618;47.056;15.472;2024-02-16T06:56:37;19.40;;;18.60;;
3211;SDS011;1618;47.056;15.472;2024-02-16T06:59:06;19.50;;;18.70;;
3211;SDS011;1618;47.056;15.472;2024-02-16T07:01:33;19.10;;;18.30;;
3211;SDS011;1618;47.056;15.472;2024-02-16T07:04:01;19.30;;;18.50;;
3211;SDS011;1618;47.056;15.472;2024-02-16T07:06:28;19.37;;;18.57;;
3211;SDS011;1618;47.056;15.472;2024-02-16T07:08:55;19.50;;;18.70;;
3211;SDS011;1618;47.056;15.472;2024-02-16T07:11:22;19.40;;;18.60;;
3211;SDS011;1618;47.056;15.472;2024-02-16T07:13:50;20.30;;;19.40;;
3211;SDS011;1618;47.056;15.472;2024-02-16T07:16:18;20.20;;;19.30;;
3211;SDS011;1618;47.056;15.472;2024-02-16T07:18:46;20.50;;;19.60;;
3211;SDS011;1618;47.056;15.472;2024-02-16T07:21:13;19.30;;;18.50;;
3211;SDS011;1618;47.056;15.472;2024-02-16T07:23:41;20.70;;;19.80;;
3211;SDS011;1618;47.056;15.472;2024-02-16T07:26:08;20.60;;;19.70;;
3211;SDS011;1618;47.056;15.472;2024-02-16T07:28:38;20.10;;;19.20;;
3211;SDS011;1618;47.056;15.472;2024-02-16T07:31:05;20.03;;;19.13;;
3211;SDS011;1618;47.056;15.472;2024-02-16T07:33:39;20.67;;;19.77;;
3211;SDS011;1618;47.056;15.472;2024-02-16T07:36:07;20.90;;;20.00;;
3211;SDS011;1618;47.056;15.472;2024-02-16T07:38:35;21.70;;;20.80;;
3211;SDS011;1618;47.056;15.472;2024-02-16T07:41:02;21.60;;;20.70;;
3211;SDS011;1618;47.056;15.472;2024-02-16T07:43:31;22.30;;;21.30;;
3211;SDS011;1618;47.056;15.472;2024-02-16T07:45:59;22.50;;;21.50;;
3211;SDS011;1618;47.056;15.472;2024-02-16T07:48:29;22.60;;;21.60;;
3211;SDS011;1618;47.056;15.472;2024-02-16T07:51:04;22.60;;;21.60;;
3211;SDS011;1618;47.056;15.472;2024-02-16T07:53:34;23.20;;;22.10;;
3211;SDS011;1618;47.056;15.472;2024-02-16T07:56:01;21.40;;;20.50;;
3211;SDS011;1618;47.056;15.472;2024-02-16T07:58:30;20.93;;;20.03;;
3211;SDS011;1618;47.056;15.472;2024-02-16T08:00:58;21.40;;;20.50;;
3211;SDS011;1618;47.056;15.472;2024-02-16T08:03:25;21.53;;;20.63;;
3211;SDS011;1618;47.056;15.472;2024-02-16T08:05:52;20.70;;;19.80;;
3211;SDS011;1618;47.056;15.472;2024-02-16T08:08:23;20.40;;;19.50;;
3211;SDS011;1618;47.056;15.472;2024-02-16T08:10:51;19.77;;;18.87;;
3211;SDS011;1618;47.056;15.472;2024-02-16T08:13:19;20.17;;;19.27;;
3211;SDS011;1618;47.056;15.472;2024-02-16T08:15:48;19.90;;;19.00;;
3211;SDS011;1618;47.056;15.472;2024-02-16T08:18:18;18.83;;;18.03;;
3211;SDS011;1618;47.056;15.472;2024-02-16T08:20:45;20.40;;;19.50;;
3211;SDS011;1618;47.056;15.472;2024-02-16T08:23:13;20.70;;;19.80;;
3211;SDS011;1618;47.056;15.472;2024-02-16T08:25:42;20.30;;;19.40;;
3211;SDS011;1618;47.056;15.472;2024-02-16T08:28:10;21.33;;;20.43;;
3211;SDS011;1618;47.056;15.472;2024-02-16T08:30:37;21.17;;;20.17;;
3211;SDS011;1618;47.056;15.472;2024-02-16T08:33:06;21.73;;;20.73;;
3211;SDS011;1618;47.056;15.472;2024-02-16T08:35:34;23.20;;;22.10;;
3211;SDS011;1618;47.056;15.472;2024-02-16T08:38:05;23.57;;;22.47;;
3211;SDS011;1618;47.056;15.472;2024-02-16T08:40:36;23.10;;;22.00;;
3211;SDS011;1618;47.056;15.472;2024-02-16T08:43:05;23.80;;;22.60;;
3211;SDS011;1618;47.056;15.472;2024-02-16T08:45:34;24.00;;;22.80;;
3211;SDS011;1618;47.056;15.472;2024-02-16T08:48:02;25.63;;;24.33;;
3211;SDS011;1618;47.056;15.472;2024-02-16T08:50:29;26.40;;;25.00;;
3211;SDS011;1618;47.056;15.472;2024-02-16T08:52:56;27.00;;;25.60;;
3211;SDS011;1618;47.056;15.472;2024-02-16T08:55:24;26.20;;;24.80;;
3211;SDS011;1618;47.056;15.472;2024-02-16T08:57:52;26.43;;;25.03;;
3211;SDS011;1618;47.056;15.472;2024-02-16T09:00:21;26.33;;;24.93;;
3211;SDS011;1618;47.056;15.472;2024-02-16T09:02:49;27.60;;;26.10;;
3211;SDS011;1618;47.056;15.472;2024-02-16T09:05:17;27.60;;;26.10;;
3211;SDS011;1618;47.056;15.472;2024-02-16T09:07:45;28.83;;;27.23;;
3211;SDS011;1618;47.056;15.472;2024-02-16T09:10:12;28.13;;;26.53;;
3211;SDS011;1618;47.056;15.472;2024-02-16T09:12:41;28.20;;;26.60;;
3211;SDS011;1618;47.056;15.472;2024-02-16T09:15:09;28.00;;;26.40;;
3211;SDS011;1618;47.056;15.472;2024-02-16T09:17:39;27.50;;;25.90;;
3211;SDS011;1618;47.056;15.472;2024-02-16T09:20:09;28.07;;;26.37;;
3211;SDS011;1618;47.056;15.472;2024-02-16T09:22:42;28.00;;;26.30;;
3211;SDS011;1618;47.056;15.472;2024-02-16T09:25:13;27.47;;;25.87;;
3211;SDS011;1618;47.056;15.472;2024-02-16T09:27:41;27.50;;;25.80;;
3211;SDS011;1618;47.056;15.472;2024-02-16T09:30:10;28.03;;;26.33;;
3211;SDS011;1618;47.056;15.472;2024-02-16T09:32:40;28.40;;;26.60;;
3211;SDS011;1618;47.056;15.472;2024-02-16T09:35:09;28.13;;;26.33;;
3211;SDS011;1618;47.056;15.472;2024-02-16T09:37:39;29.07;;;27.27;;
3211;SDS011;1618;47.056;15.472;2024-02-16T09:40:11;28.20;;;26.40;;
3211;SDS011;1618;47.056;15.472;2024-02-16T09:42:39;28.40;;;26.50;;
3211;SDS011;1618;47.056;15.472;2024-02-16T09:45:07;28.30;;;26.40;;
3211;SDS011;1618;47.056;15.472;2024-02-16T09:47:37;28.27;;;26.37;;
3211;SDS011;1618;47.056;15.472;2024-02-16T09:50:07;29.00;;;27.20;;
3211;SDS011;1618;47.056;15.472;2024-02-16T09:52:35;28.50;;;26.70;;
3211;SDS011;1618;47.056;15.472;2024-02-16T09:55:02;28.90;;;27.00;;
3211;SDS011;1618;47.056;15.472;2024-02-16T09:57:32;28.87;;;26.83;;
3211;SDS011;1618;47.056;15.472;2024-02-16T09:59:59;28.70;;;26.70;;
3211;SDS011;1618;47.056;15.472;2024-02-16T10:02:26;28.20;;;26.20;;
3211;SDS011;1618;47.056;15.472;2024-02-16T10:04:53;29.03;;;26.93;;
3211;SDS011;1618;47.056;15.472;2024-02-16T10:07:31;32.07;;;29.77;;
3211;SDS011;1618;47.056;15.472;2024-02-16T10:09:59;30.60;;;28.30;;
3211;SDS011;1618;47.056;15.472;2024-02-16T10:12:26;30.53;;;28.13;;
3211;SDS011;1618;47.056;15.472;2024-02-16T10:14:55;31.80;;;29.30;;
3211;SDS011;1618;47.056;15.472;2024-02-16T10:17:24;31.07;;;28.57;;
3211;SDS011;1618;47.056;15.472;2024-02-16T10:19:55;32.10;;;29.50;;
3211;SDS011;1618;47.056;15.472;2024-02-16T10:22:23;33.00;;;30.30;;
3211;SDS011;1618;47.056;15.472;2024-02-16T10:24:52;33.47;;;30.77;;
3211;SDS011;1618;47.056;15.472;2024-02-16T10:27:19;34.27;;;31.47;;
3211;SDS011;1618;47.056;15.472;2024-02-16T10:29:47;32.50;;;29.90;;
3211;SDS011;1618;47.056;15.472;2024-02-16T10:32:15;31.30;;;28.60;;
3211;SDS011;1618;47.056;15.472;2024-02-16T10:34:43;33.13;;;30.53;;
3211;SDS011;1618;47.056;15.472;2024-02-16T10:37:12;34.03;;;31.43;;
3211;SDS011;1618;47.056;15.472;2024-02-16T10:39:39;32.73;;;30.07;;
3211;SDS011;1618;47.056;15.472;2024-02-16T10:42:08;33.30;;;30.70;;
3211;SDS011;1618;47.056;15.472;2024-02-16T10:44:36;32.50;;;30.00;;
3211;SDS011;1618;47.056;15.472;2024-02-16T10:47:05;33.80;;;31.20;;
3211;SDS011;1618;47.056;15.472;2024-02-16T10:49:35;32.23;;;29.53;;
3211;SDS011;1618;47.056;15.472;2024-02-16T10:52:05;32.90;;;30.30;;
3211;SDS011;1618;47.056;15.472;2024-02-16T10:54:34;32.80;;;29.90;;
3211;SDS011;1618;47.056;15.472;2024-02-16T10:57:07;32.80;;;30.00;;
3211;SDS011;1618;47.056;15.472;2024-02-16T10:59:40;35.03;;;32.20;;
3211;SDS011;1618;47.056;15.472;2024-02-16T11:02:09;35.53;;;32.67;;
3211;SDS011;1618;47.056;15.472;2024-02-16T11:04:38;33.77;;;30.87;;
3211;SDS011;1618;47.056;15.472;2024-02-16T11:07:10;34.60;;;31.80;;
3211;SDS011;1618;47.056;15.472;2024-02-16T11:09:38;34.40;;;31.60;;
3211;SDS011;1618;47.056;15.472;2024-02-16T11:12:06;34.07;;;31.37;;
3211;SDS011;1618;47.056;15.472;2024-02-16T11:14:34;35.83;;;32.93;;
3211;SDS011;1618;47.056;15.472;2024-02-16T11:17:06;36.17;;;33.27;;
3211;SDS011;1618;47.056;15.472;2024-02-16T11:19:35;34.23;;;31.33;;
3211;SDS011;1618;47.056;15.472;2024-02-16T11:22:03;36.10;;;33.20;;
3211;SDS011;1618;47.056;15.472;2024-02-16T11:24:32;34.73;;;31.83;;
3211;SDS011;1618;47.056;15.472;2024-02-16T11:27:04;35.40;;;32.40;;
3211;SDS011;1618;47.056;15.472;2024-02-16T11:29:36;36.93;;;33.93;;
3211;SDS011;1618;47.056;15.472;2024-02-16T11:32:05;35.23;;;32.33;;
3211;SDS011;1618;47.056;15.472;2024-02-16T11:34:33;34.30;;;31.30;;
3211;SDS011;1618;47.056;15.472;2024-02-16T11:37:03;35.77;;;32.77;;
3211;SDS011;1618;47.056;15.472;2024-02-16T11:39:30;33.63;;;30.63;;
3211;SDS011;1618;47.056;15.472;2024-02-16T11:42:00;34.57;;;31.57;;
3211;SDS011;1618;47.056;15.472;2024-02-16T11:44:28;34.93;;;32.03;;
3211;SDS011;1618;47.056;15.472;2024-02-16T11:46:58;35.33;;;32.33;;
3211;SDS011;1618;47.056;15.472;2024-02-16T11:49:27;34.93;;;31.83;;
3211;SDS011;1618;47.056;15.472;2024-02-16T11:51:55;34.13;;;31.13;;
3211;SDS011;1618;47.056;15.472;2024-02-16T11:54:22;34.00;;;31.00;;
3211;SDS011;1618;47.056;15.472;2024-02-16T11:56:50;35.73;;;32.73;;
3211;SDS011;1618;47.056;15.472;2024-02-16T11:59:18;35.20;;;32.30;;
3211;SDS011;1618;47.056;15.472;2024-02-16T12:01:48;34.47;;;31.47;;
3211;SDS011;1618;47.056;15.472;2024-02-16T12:04:19;35.43;;;32.37;;
3211;SDS011;1618;47.056;15.472;2024-02-16T12:06:48;33.90;;;30.80;;
3211;SDS011;1618;47.056;15.472;2024-02-16T12:09:16;34.50;;;31.50;;
3211;SDS011;1618;47.056;15.472;2024-02-16T12:11:44;33.90;;;31.00;;
3211;SDS011;1618;47.056;15.472;2024-02-16T12:14:11;34.80;;;31.80;;
3211;SDS011;1618;47.056;15.472;2024-02-16T12:16:38;35.47;;;32.47;;
3211;SDS011;1618;47.056;15.472;2024-02-16T12:19:06;32.90;;;29.90;;
3211;SDS011;1618;47.056;15.472;2024-02-16T12:21:38;31.90;;;29.00;;
3211;SDS011;1618;47.056;15.472;2024-02-16T12:24:08;31.90;;;28.97;;
3211;SDS011;1618;47.056;15.472;2024-02-16T12:26:37;31.37;;;28.37;;
3211;SDS011;1618;47.056;15.472;2024-02-16T12:29:06;31.50;;;28.57;;
3211;SDS011;1618;47.056;15.472;2024-02-16T12:31:34;32.13;;;29.13;;
3211;SDS011;1618;47.056;15.472;2024-02-16T12:34:04;32.10;;;29.10;;
3211;SDS011;1618;47.056;15.472;2024-02-16T12:36:32;33.40;;;30.40;;
3211;SDS011;1618;47.056;15.472;2024-02-16T12:39:00;33.30;;;30.40;;
3211;SDS011;1618;47.056;15.472;2024-02-16T12:41:34;33.47;;;30.53;;
3211;SDS011;1618;47.056;15.472;2024-02-16T12:44:12;32.77;;;29.77;;
3211;SDS011;1618;47.056;15.472;2024-02-16T12:46:40;34.07;;;31.07;;
3211;SDS011;1618;47.056;15.472;2024-02-16T12:49:09;33.53;;;30.53;;
3211;SDS011;1618;47.056;15.472;2024-02-16T12:51:36;33.70;;;30.70;;
3211;SDS011;1618;47.056;15.472;2024-02-16T12:54:04;34.03;;;31.03;;
3211;SDS011;1618;47.056;15.472;2024-02-16T12:56:31;36.23;;;33.13;;
3211;SDS011;1618;47.056;15.472;2024-02-16T12:59:01;35.70;;;32.70;;
3211;SDS011;1618;47.056;15.472;2024-02-16T13:01:28;33.13;;;30.07;;
3211;SDS011;1618;47.056;15.472;2024-02-16T13:03:57;36.80;;;33.90;;
3211;SDS011;1618;47.056;15.472;2024-02-16T13:06:25;36.63;;;33.63;;
3211;SDS011;1618;47.056;15.472;2024-02-16T13:08:52;32.33;;;29.33;;
3211;SDS011;1618;47.056;15.472;2024-02-16T13:11:21;34.30;;;31.50;;
3211;SDS011;1618;47.056;15.472;2024-02-16T13:13:49;32.40;;;29.50;;
3211;SDS011;1618;47.056;15.472;2024-02-16T13:16:18;33.97;;;30.97;;
3211;SDS011;1618;47.056;15.472;2024-02-16T13:18:47;34.60;;;31.60;;
3211;SDS011;1618;47.056;15.472;2024-02-16T13:21:14;34.00;;;30.80;;
3211;SDS011;1618;47.056;15.472;2024-02-16T13:23:41;34.63;;;31.53;;
3211;SDS011;1618;47.056;15.472;2024-02-16T13:26:10;32.63;;;29.53;;
3211;SDS011;1618;47.056;15.472;2024-02-16T13:28:42;33.57;;;30.57;;
3211;SDS011;1618;47.056;15.472;2024-02-16T13:31:10;33.20;;;30.20;;
3211;SDS011;1618;47.056;15.472;2024-02-16T13:33:38;33.43;;;30.33;;
3211;SDS011;1618;47.056;15.472;2024-02-16T13:36:06;33.90;;;30.90;;
3211;SDS011;1618;47.056;15.472;2024-02-16T13:38:34;35.23;;;32.13;;
3211;SDS011;1618;47.056;15.472;2024-02-16T13:41:02;34.47;;;31.47;;
3211;SDS011;1618;47.056;15.472;2024-02-16T13:43:30;33.37;;;30.37;;
3211;SDS011;1618;47.056;15.472;2024-02-16T13:45:59;34.60;;;31.60;;
3211;SDS011;1618;47.056;15.472;2024-02-16T13:48:26;34.03;;;30.93;;
3211;SDS011;1618;47.056;15.472;2024-02-16T13:50:56;33.63;;;30.53;;
3211;SDS011;1618;47.056;15.472;2024-02-16T13:53:25;34.30;;;31.20;;
3211;SDS011;1618;47.056;15.472;2024-02-16T13:55:52;33.13;;;30.23;;
3211;SDS011;1618;47.056;15.472;2024-02-16T13:58:22;34.10;;;31.10;;
3211;SDS011;1618;47.056;15.472;2024-02-16T14:00:51;33.27;;;30.27;;
3211;SDS011;1618;47.056;15.472;2024-02-16T14:03:19;33.90;;;31.00;;
3211;SDS011;1618;47.056;15.472;2024-02-16T14:05:46;33.50;;;30.60;;
3211;SDS011;1618;47.056;15.472;2024-02-16T14:08:17;33.03;;;30.13;;
3211;SDS011;1618;47.056;15.472;2024-02-16T14:10:45;33.70;;;30.70;;
3211;SDS011;1618;47.056;15.472;2024-02-16T14:13:13;34.23;;;31.23;;
3211;SDS011;1618;47.056;15.472;2024-02-16T14:15:42;34.50;;;31.60;;
3211;SDS011;1618;47.056;15.472;2024-02-16T14:18:10;34.53;;;31.63;;
3211;SDS011;1618;47.056;15.472;2024-02-16T14:20:37;33.77;;;30.87;;
3211;SDS011;1618;47.056;15.472;2024-02-16T14:23:06;34.47;;;31.57;;
3211;SDS011;1618;47.056;15.472;2024-02-16T14:25:38;34.27;;;31.37;;
3211;SDS011;1618;47.056;15.472;2024-02-16T14:28:07;33.43;;;30.53;;
3211;SDS011;1618;47.056;15.472;2024-02-16T14:30:40;36.10;;;33.10;;
3211;SDS011;1618;47.056;15.472;2024-02-16T14:33:10;34.90;;;32.00;;
3211;SDS011;1618;47.056;15.472;2024-02-16T14:35:38;35.53;;;32.53;;
3211;SDS011;1618;47.056;15.472;2024-02-16T14:38:06;35.47;;;32.47;;
3211;SDS011;1618;47.056;15.472;2024-02-16T14:40:33;34.13;;;31.23;;